sensor_id;sensor_type;location;lat;lon;timestamp;P1;durP1;ratioP1;P2;durP2;ratioP2
33826;SDS011;20128;45.582;5.298;2023-07-20T00:01:15;5.75;;;3.58;;
33826;SDS011;20128;45.582;5.298;2023-07-20T00:03:41;5.00;;;3.05;;
33826;SDS011;20128;45.582;5.298;2023-07-20T00:06:06;4.45;;;2.88;;
33826;SDS011;20128;45.582;5.298;2023-07-20T00:08:32;5.88;;;3.33;;
33826;SDS011;20128;45.582;5.298;2023-07-20T00:10:58;8.25;;;3.33;;
33826;SDS011;20128;45.582;5.298;2023-07-20T00:13:24;6.53;;;3.40;;
33826;SDS011;20128;45.582;5.298;2023-07-20T00:15:50;6.18;;;3.33;;
33826;SDS011;20128;45.582;5.298;2023-07-20T00:18:16;4.90;;;3.00;;
33826;SDS011;20128;45.582;5.298;2023-07-20T00:20:42;6.93;;;3.25;;
33826;SDS011;20128;45.582;5.298;2023-07-20T00:23:08;6.95;;;3.65;;
33826;SDS011;20128;45.582;5.298;2023-07-20T00:25:34;7.38;;;3.03;;
33826;SDS011;20128;45.582;5.298;2023-07-20T00:28:00;5.50;;;3.13;;
33826;SDS011;20128;45.582;5.298;2023-07-20T00:30:26;8.10;;;3.55;;
33826;SDS011;20128;45.582;5.298;2023-07-20T00:32:52;5.05;;;2.88;;
33826;SDS011;20128;45.582;5.298;2023-07-20T00:35:17;8.65;;;4.10;;
33826;SDS011;20128;45.582;5.298;2023-07-20T00:37:43;6.93;;;2.90;;
33826;SDS011;20128;45.582;5.298;2023-07-20T00:40:09;9.00;;;3.35;;
33826;SDS011;20128;45.582;5.298;2023-07-20T00:42:34;6.70;;;3.55;;
33826;SDS011;20128;45.582;5.298;2023-07-20T00:45:00;7.85;;;3.40;;
33826;SDS011;20128;45.582;5.298;2023-07-20T00:47:26;7.75;;;3.35;;
33826;SDS011;20128;45.582;5.298;2023-07-20T00:49:52;4.75;;;3.35;;
33826;SDS011;20128;45.582;5.298;2023-07-20T00:52:19;8.43;;;3.85;;
33826;SDS011;20128;45.582;5.298;2023-07-20T00:54:47;7.38;;;3.30;;
33826;SDS011;20128;45.582;5.298;2023-07-20T00:57:14;4.72;;;3.03;;
33826;SDS011;20128;45.582;5.298;2023-07-20T00:59:40;6.55;;;3.00;;
33826;SDS011;20128;45.582;5.298;2023-07-20T01:02:06;6.82;;;3.17;;
33826;SDS011;20128;45.582;5.298;2023-07-20T01:04:32;6.93;;;3.20;;
33826;SDS011;20128;45.582;5.298;2023-07-20T01:09:36;4.38;;;2.67;;
33826;SDS011;20128;45.582;5.298;2023-07-20T01:14:40;7.82;;;3.42;;
33826;SDS011;20128;45.582;5.298;2023-07-20T01:17:06;9.18;;;3.03;;
33826;SDS011;20128;45.582;5.298;2023-07-20T01:19:32;6.47;;;3.40;;
33826;SDS011;20128;45.582;5.298;2023-07-20T01:24:49;8.02;;;2.83;;
33826;SDS011;20128;45.582;5.298;2023-07-20T01:33:13;7.82;;;3.13;;
33826;SDS011;20128;45.582;5.298;2023-07-20T01:35:41;5.38;;;3.20;;
33826;SDS011;20128;45.582;5.298;2023-07-20T01:38:09;7.03;;;3.17;;
33826;SDS011;20128;45.582;5.298;2023-07-20T01:40:37;6.30;;;3.13;;
33826;SDS011;20128;45.582;5.298;2023-07-20T01:43:03;5.30;;;3.00;;
33826;SDS011;20128;45.582;5.298;2023-07-20T01:45:29;7.78;;;3.58;;
33826;SDS011;20128;45.582;5.298;2023-07-20T01:47:54;8.73;;;2.85;;
33826;SDS011;20128;45.582;5.298;2023-07-20T01:50:20;6.85;;;3.15;;
33826;SDS011;20128;45.582;5.298;2023-07-20T01:52:46;6.32;;;3.15;;
33826;SDS011;20128;45.582;5.298;2023-07-20T01:55:11;4.70;;;3.00;;
33826;SDS011;20128;45.582;5.298;2023-07-20T01:57:37;7.22;;;3.00;;
33826;SDS011;20128;45.582;5.298;2023-07-20T02:00:03;7.75;;;3.00;;
33826;SDS011;20128;45.582;5.298;2023-07-20T02:02:29;7.63;;;2.97;;
33826;SDS011;20128;45.582;5.298;2023-07-20T02:04:54;4.72;;;2.85;;
33826;SDS011;20128;45.582;5.298;2023-07-20T02:07:20;6.15;;;2.85;;
33826;SDS011;20128;45.582;5.298;2023-07-20T02:09:46;5.15;;;2.92;;
33826;SDS011;20128;45.582;5.298;2023-07-20T02:12:11;8.88;;;2.80;;
33826;SDS011;20128;45.582;5.298;2023-07-20T02:14:37;5.00;;;2.67;;
33826;SDS011;20128;45.582;5.298;2023-07-20T02:17:04;6.57;;;3.38;;
33826;SDS011;20128;45.582;5.298;2023-07-20T02:19:29;3.97;;;2.63;;
33826;SDS011;20128;45.582;5.298;2023-07-20T02:21:55;6.95;;;2.90;;
33826;SDS011;20128;45.582;5.298;2023-07-20T02:24:21;5.05;;;2.75;;
33826;SDS011;20128;45.582;5.298;2023-07-20T02:26:46;5.97;;;3.10;;
33826;SDS011;20128;45.582;5.298;2023-07-20T02:29:12;5.80;;;2.63;;
33826;SDS011;20128;45.582;5.298;2023-07-20T02:31:37;7.53;;;2.97;;
33826;SDS011;20128;45.582;5.298;2023-07-20T02:34:04;4.65;;;2.60;;
33826;SDS011;20128;45.582;5.298;2023-07-20T02:36:31;7.85;;;2.55;;
33826;SDS011;20128;45.582;5.298;2023-07-20T02:38:58;5.53;;;2.75;;
33826;SDS011;20128;45.582;5.298;2023-07-20T02:41:24;8.32;;;2.65;;
33826;SDS011;20128;45.582;5.298;2023-07-20T02:43:49;5.50;;;2.55;;
33826;SDS011;20128;45.582;5.298;2023-07-20T02:46:15;5.13;;;2.47;;
33826;SDS011;20128;45.582;5.298;2023-07-20T02:48:41;4.75;;;2.45;;
33826;SDS011;20128;45.582;5.298;2023-07-20T02:51:06;5.32;;;2.50;;
33826;SDS011;20128;45.582;5.298;2023-07-20T02:53:32;4.88;;;2.60;;
33826;SDS011;20128;45.582;5.298;2023-07-20T02:55:58;5.40;;;2.60;;
33826;SDS011;20128;45.582;5.298;2023-07-20T02:58:24;3.97;;;2.65;;
33826;SDS011;20128;45.582;5.298;2023-07-20T03:00:50;5.25;;;2.78;;
33826;SDS011;20128;45.582;5.298;2023-07-20T03:03:15;4.78;;;2.47;;
33826;SDS011;20128;45.582;5.298;2023-07-20T03:05:41;8.20;;;3.03;;
33826;SDS011;20128;45.582;5.298;2023-07-20T03:08:07;4.43;;;2.22;;
33826;SDS011;20128;45.582;5.298;2023-07-20T03:10:38;5.07;;;2.50;;
33826;SDS011;20128;45.582;5.298;2023-07-20T03:13:06;6.15;;;2.67;;
33826;SDS011;20128;45.582;5.298;2023-07-20T03:15:32;4.03;;;2.25;;
33826;SDS011;20128;45.582;5.298;2023-07-20T03:17:57;5.85;;;2.10;;
33826;SDS011;20128;45.582;5.298;2023-07-20T03:20:23;7.38;;;2.53;;
33826;SDS011;20128;45.582;5.298;2023-07-20T03:22:49;4.65;;;2.38;;
33826;SDS011;20128;45.582;5.298;2023-07-20T03:25:15;6.00;;;2.65;;
33826;SDS011;20128;45.582;5.298;2023-07-20T03:27:41;6.55;;;2.65;;
33826;SDS011;20128;45.582;5.298;2023-07-20T03:30:06;7.10;;;2.80;;
33826;SDS011;20128;45.582;5.298;2023-07-20T03:32:34;5.18;;;2.65;;
33826;SDS011;20128;45.582;5.298;2023-07-20T03:35:00;7.53;;;2.95;;
33826;SDS011;20128;45.582;5.298;2023-07-20T03:37:26;6.82;;;2.72;;
33826;SDS011;20128;45.582;5.298;2023-07-20T03:39:52;5.30;;;2.58;;
33826;SDS011;20128;45.582;5.298;2023-07-20T03:42:17;3.65;;;2.40;;
33826;SDS011;20128;45.582;5.298;2023-07-20T03:44:43;6.22;;;2.47;;
33826;SDS011;20128;45.582;5.298;2023-07-20T03:47:09;8.93;;;2.63;;
33826;SDS011;20128;45.582;5.298;2023-07-20T03:49:35;4.65;;;2.50;;
33826;SDS011;20128;45.582;5.298;2023-07-20T03:52:00;5.07;;;2.50;;
33826;SDS011;20128;45.582;5.298;2023-07-20T03:54:28;5.65;;;2.50;;
33826;SDS011;20128;45.582;5.298;2023-07-20T03:56:54;4.55;;;2.22;;
33826;SDS011;20128;45.582;5.298;2023-07-20T03:59:20;4.15;;;2.33;;
33826;SDS011;20128;45.582;5.298;2023-07-20T04:01:45;4.40;;;2.10;;
33826;SDS011;20128;45.582;5.298;2023-07-20T04:04:11;4.82;;;2.45;;
33826;SDS011;20128;45.582;5.298;2023-07-20T04:06:37;4.13;;;1.92;;
33826;SDS011;20128;45.582;5.298;2023-07-20T04:09:03;10.15;;;2.55;;
33826;SDS011;20128;45.582;5.298;2023-07-20T04:11:32;6.45;;;2.10;;
33826;SDS011;20128;45.582;5.298;2023-07-20T04:13:57;6.97;;;2.15;;
33826;SDS011;20128;45.582;5.298;2023-07-20T04:16:23;9.55;;;2.30;;
33826;SDS011;20128;45.582;5.298;2023-07-20T04:18:49;5.65;;;2.20;;
33826;SDS011;20128;45.582;5.298;2023-07-20T04:21:15;3.75;;;2.25;;
33826;SDS011;20128;45.582;5.298;2023-07-20T04:23:40;3.38;;;1.90;;
33826;SDS011;20128;45.582;5.298;2023-07-20T04:26:06;3.70;;;2.08;;
33826;SDS011;20128;45.582;5.298;2023-07-20T04:28:32;6.78;;;1.83;;
33826;SDS011;20128;45.582;5.298;2023-07-20T04:31:12;5.70;;;2.00;;
33826;SDS011;20128;45.582;5.298;2023-07-20T04:33:38;6.00;;;2.42;;
33826;SDS011;20128;45.582;5.298;2023-07-20T04:36:04;3.80;;;2.15;;
33826;SDS011;20128;45.582;5.298;2023-07-20T04:38:30;6.40;;;2.30;;
33826;SDS011;20128;45.582;5.298;2023-07-20T04:40:56;4.13;;;1.60;;
33826;SDS011;20128;45.582;5.298;2023-07-20T04:43:22;5.85;;;1.80;;
33826;SDS011;20128;45.582;5.298;2023-07-20T04:45:49;3.83;;;1.73;;
33826;SDS011;20128;45.582;5.298;2023-07-20T04:48:15;8.57;;;2.20;;
33826;SDS011;20128;45.582;5.298;2023-07-20T04:50:43;5.75;;;2.03;;
33826;SDS011;20128;45.582;5.298;2023-07-20T04:53:10;4.65;;;1.60;;
33826;SDS011;20128;45.582;5.298;2023-07-20T04:55:39;5.18;;;2.42;;
33826;SDS011;20128;45.582;5.298;2023-07-20T04:58:05;3.85;;;1.60;;
33826;SDS011;20128;45.582;5.298;2023-07-20T05:00:34;5.72;;;2.13;;
33826;SDS011;20128;45.582;5.298;2023-07-20T05:03:00;3.55;;;1.83;;
33826;SDS011;20128;45.582;5.298;2023-07-20T05:05:26;9.82;;;2.17;;
33826;SDS011;20128;45.582;5.298;2023-07-20T05:07:51;5.65;;;2.00;;
33826;SDS011;20128;45.582;5.298;2023-07-20T05:10:17;3.10;;;1.80;;
33826;SDS011;20128;45.582;5.298;2023-07-20T05:12:43;11.35;;;2.05;;
33826;SDS011;20128;45.582;5.298;2023-07-20T05:15:09;6.57;;;1.88;;
33826;SDS011;20128;45.582;5.298;2023-07-20T05:17:35;5.90;;;1.88;;
33826;SDS011;20128;45.582;5.298;2023-07-20T05:20:00;5.72;;;2.08;;
33826;SDS011;20128;45.582;5.298;2023-07-20T05:22:26;13.80;;;2.58;;
33826;SDS011;20128;45.582;5.298;2023-07-20T05:24:52;13.25;;;2.42;;
33826;SDS011;20128;45.582;5.298;2023-07-20T05:27:17;9.05;;;2.80;;
33826;SDS011;20128;45.582;5.298;2023-07-20T05:29:44;5.22;;;1.80;;
33826;SDS011;20128;45.582;5.298;2023-07-20T05:32:10;4.75;;;1.98;;
33826;SDS011;20128;45.582;5.298;2023-07-20T05:34:36;12.23;;;2.20;;
33826;SDS011;20128;45.582;5.298;2023-07-20T05:37:01;7.47;;;2.20;;
33826;SDS011;20128;45.582;5.298;2023-07-20T05:39:27;4.63;;;2.03;;
33826;SDS011;20128;45.582;5.298;2023-07-20T05:41:52;9.75;;;2.33;;
33826;SDS011;20128;45.582;5.298;2023-07-20T05:44:18;11.73;;;2.58;;
33826;SDS011;20128;45.582;5.298;2023-07-20T05:46:44;5.97;;;2.13;;
33826;SDS011;20128;45.582;5.298;2023-07-20T05:49:09;12.20;;;2.08;;
33826;SDS011;20128;45.582;5.298;2023-07-20T05:51:35;6.00;;;2.00;;
33826;SDS011;20128;45.582;5.298;2023-07-20T05:54:01;4.75;;;1.88;;
33826;SDS011;20128;45.582;5.298;2023-07-20T05:56:27;4.63;;;2.42;;
33826;SDS011;20128;45.582;5.298;2023-07-20T05:58:52;5.95;;;1.45;;
33826;SDS011;20128;45.582;5.298;2023-07-20T06:01:18;4.00;;;1.70;;
33826;SDS011;20128;45.582;5.298;2023-07-20T06:03:44;5.10;;;1.60;;
33826;SDS011;20128;45.582;5.298;2023-07-20T06:06:09;10.45;;;1.75;;
33826;SDS011;20128;45.582;5.298;2023-07-20T06:08:37;6.20;;;1.60;;
33826;SDS011;20128;45.582;5.298;2023-07-20T06:11:03;5.80;;;1.55;;
33826;SDS011;20128;45.582;5.298;2023-07-20T06:13:29;6.55;;;1.35;;
33826;SDS011;20128;45.582;5.298;2023-07-20T06:15:54;6.65;;;1.60;;
33826;SDS011;20128;45.582;5.298;2023-07-20T06:18:22;5.90;;;1.60;;
33826;SDS011;20128;45.582;5.298;2023-07-20T06:20:51;3.42;;;1.30;;
33826;SDS011;20128;45.582;5.298;2023-07-20T06:23:18;7.95;;;1.85;;
33826;SDS011;20128;45.582;5.298;2023-07-20T06:25:44;5.50;;;1.40;;
33826;SDS011;20128;45.582;5.298;2023-07-20T06:28:10;5.80;;;1.67;;
33826;SDS011;20128;45.582;5.298;2023-07-20T06:30:36;8.88;;;2.17;;
33826;SDS011;20128;45.582;5.298;2023-07-20T06:33:01;4.63;;;2.05;;
33826;SDS011;20128;45.582;5.298;2023-07-20T06:35:27;6.18;;;1.65;;
33826;SDS011;20128;45.582;5.298;2023-07-20T06:37:53;3.65;;;1.77;;
33826;SDS011;20128;45.582;5.298;2023-07-20T06:40:18;9.90;;;1.52;;
33826;SDS011;20128;45.582;5.298;2023-07-20T06:42:44;10.70;;;1.60;;
33826;SDS011;20128;45.582;5.298;2023-07-20T06:45:10;7.35;;;2.10;;
33826;SDS011;20128;45.582;5.298;2023-07-20T06:47:39;7.57;;;2.10;;
33826;SDS011;20128;45.582;5.298;2023-07-20T06:50:05;9.90;;;2.08;;
33826;SDS011;20128;45.582;5.298;2023-07-20T06:52:32;7.10;;;1.63;;
33826;SDS011;20128;45.582;5.298;2023-07-20T06:54:58;10.63;;;2.00;;
33826;SDS011;20128;45.582;5.298;2023-07-20T06:57:24;7.15;;;1.70;;
33826;SDS011;20128;45.582;5.298;2023-07-20T06:59:50;5.25;;;1.70;;
33826;SDS011;20128;45.582;5.298;2023-07-20T07:02:16;4.18;;;1.73;;
33826;SDS011;20128;45.582;5.298;2023-07-20T07:04:42;4.60;;;2.03;;
33826;SDS011;20128;45.582;5.298;2023-07-20T07:07:07;6.30;;;2.05;;
33826;SDS011;20128;45.582;5.298;2023-07-20T07:09:34;5.88;;;1.67;;
33826;SDS011;20128;45.582;5.298;2023-07-20T07:12:00;9.40;;;1.77;;
33826;SDS011;20128;45.582;5.298;2023-07-20T07:14:25;2.60;;;1.08;;
33826;SDS011;20128;45.582;5.298;2023-07-20T07:16:51;5.13;;;1.50;;
33826;SDS011;20128;45.582;5.298;2023-07-20T07:19:16;6.25;;;1.55;;
33826;SDS011;20128;45.582;5.298;2023-07-20T07:21:42;4.10;;;1.85;;
33826;SDS011;20128;45.582;5.298;2023-07-20T07:24:08;10.93;;;1.77;;
33826;SDS011;20128;45.582;5.298;2023-07-20T07:26:34;6.85;;;1.48;;
33826;SDS011;20128;45.582;5.298;2023-07-20T07:29:01;4.63;;;2.08;;
33826;SDS011;20128;45.582;5.298;2023-07-20T07:31:28;5.20;;;1.50;;
33826;SDS011;20128;45.582;5.298;2023-07-20T07:33:55;4.88;;;1.65;;
33826;SDS011;20128;45.582;5.298;2023-07-20T07:36:21;8.27;;;1.42;;
33826;SDS011;20128;45.582;5.298;2023-07-20T07:38:47;4.22;;;1.35;;
33826;SDS011;20128;45.582;5.298;2023-07-20T07:41:13;3.15;;;1.08;;
33826;SDS011;20128;45.582;5.298;2023-07-20T07:43:39;8.00;;;1.75;;
33826;SDS011;20128;45.582;5.298;2023-07-20T07:46:04;5.05;;;1.65;;
33826;SDS011;20128;45.582;5.298;2023-07-20T07:48:30;3.22;;;1.23;;
33826;SDS011;20128;45.582;5.298;2023-07-20T07:50:56;6.00;;;1.20;;
33826;SDS011;20128;45.582;5.298;2023-07-20T07:53:21;4.47;;;1.98;;
33826;SDS011;20128;45.582;5.298;2023-07-20T07:55:47;4.28;;;1.67;;
33826;SDS011;20128;45.582;5.298;2023-07-20T07:58:13;3.17;;;1.35;;
33826;SDS011;20128;45.582;5.298;2023-07-20T08:00:39;6.15;;;1.55;;
33826;SDS011;20128;45.582;5.298;2023-07-20T08:03:08;9.23;;;2.38;;
33826;SDS011;20128;45.582;5.298;2023-07-20T08:05:34;2.22;;;1.27;;
33826;SDS011;20128;45.582;5.298;2023-07-20T08:08:02;5.15;;;1.27;;
33826;SDS011;20128;45.582;5.298;2023-07-20T08:10:31;4.03;;;1.52;;
33826;SDS011;20128;45.582;5.298;2023-07-20T08:12:57;3.08;;;1.70;;
33826;SDS011;20128;45.582;5.298;2023-07-20T08:15:22;4.90;;;1.40;;
33826;SDS011;20128;45.582;5.298;2023-07-20T08:17:48;2.38;;;1.33;;
33826;SDS011;20128;45.582;5.298;2023-07-20T08:20:16;3.40;;;1.25;;
33826;SDS011;20128;45.582;5.298;2023-07-20T08:22:43;3.28;;;1.10;;
33826;SDS011;20128;45.582;5.298;2023-07-20T08:25:08;3.03;;;1.48;;
33826;SDS011;20128;45.582;5.298;2023-07-20T08:27:34;4.40;;;1.30;;
33826;SDS011;20128;45.582;5.298;2023-07-20T08:30:01;6.18;;;1.13;;
33826;SDS011;20128;45.582;5.298;2023-07-20T08:32:27;7.47;;;1.60;;
33826;SDS011;20128;45.582;5.298;2023-07-20T08:34:53;4.32;;;1.10;;
33826;SDS011;20128;45.582;5.298;2023-07-20T08:37:19;7.47;;;1.50;;
33826;SDS011;20128;45.582;5.298;2023-07-20T08:39:44;4.75;;;1.00;;
33826;SDS011;20128;45.582;5.298;2023-07-20T08:42:10;5.13;;;1.02;;
33826;SDS011;20128;45.582;5.298;2023-07-20T08:44:37;5.10;;;1.08;;
33826;SDS011;20128;45.582;5.298;2023-07-20T08:47:05;3.92;;;1.02;;
33826;SDS011;20128;45.582;5.298;2023-07-20T08:49:32;4.68;;;1.17;;
33826;SDS011;20128;45.582;5.298;2023-07-20T08:51:59;1.70;;;1.20;;
33826;SDS011;20128;45.582;5.298;2023-07-20T08:54:26;5.75;;;1.10;;
33826;SDS011;20128;45.582;5.298;2023-07-20T08:56:55;3.85;;;1.08;;
33826;SDS011;20128;45.582;5.298;2023-07-20T08:59:22;4.63;;;1.20;;
33826;SDS011;20128;45.582;5.298;2023-07-20T09:01:49;4.93;;;1.55;;
33826;SDS011;20128;45.582;5.298;2023-07-20T09:04:17;3.45;;;1.15;;
33826;SDS011;20128;45.582;5.298;2023-07-20T09:06:43;3.03;;;1.17;;
33826;SDS011;20128;45.582;5.298;2023-07-20T09:09:08;6.53;;;1.30;;
33826;SDS011;20128;45.582;5.298;2023-07-20T09:11:34;1.90;;;1.23;;
33826;SDS011;20128;45.582;5.298;2023-07-20T09:14:03;1.58;;;1.00;;
33826;SDS011;20128;45.582;5.298;2023-07-20T09:16:29;6.95;;;1.00;;
33826;SDS011;20128;45.582;5.298;2023-07-20T09:18:57;4.20;;;0.93;;
33826;SDS011;20128;45.582;5.298;2023-07-20T09:21:23;3.00;;;0.90;;
33826;SDS011;20128;45.582;5.298;2023-07-20T09:23:53;6.28;;;1.50;;
33826;SDS011;20128;45.582;5.298;2023-07-20T09:26:22;7.07;;;1.17;;
33826;SDS011;20128;45.582;5.298;2023-07-20T09:28:48;2.42;;;1.10;;
33826;SDS011;20128;45.582;5.298;2023-07-20T09:31:19;3.13;;;1.40;;
33826;SDS011;20128;45.582;5.298;2023-07-20T09:33:47;1.65;;;1.00;;
33826;SDS011;20128;45.582;5.298;2023-07-20T09:36:13;2.03;;;1.17;;
33826;SDS011;20128;45.582;5.298;2023-07-20T09:38:42;2.92;;;1.40;;
33826;SDS011;20128;45.582;5.298;2023-07-20T09:41:08;5.72;;;1.30;;
33826;SDS011;20128;45.582;5.298;2023-07-20T09:43:39;3.80;;;1.00;;
33826;SDS011;20128;45.582;5.298;2023-07-20T09:46:05;3.70;;;1.10;;
33826;SDS011;20128;45.582;5.298;2023-07-20T09:48:31;2.72;;;1.23;;
33826;SDS011;20128;45.582;5.298;2023-07-20T09:50:56;6.35;;;1.50;;
33826;SDS011;20128;45.582;5.298;2023-07-20T09:53:23;5.85;;;1.38;;
33826;SDS011;20128;45.582;5.298;2023-07-20T09:55:50;6.45;;;1.63;;
33826;SDS011;20128;45.582;5.298;2023-07-20T09:58:18;4.03;;;1.40;;
33826;SDS011;20128;45.582;5.298;2023-07-20T10:00:45;5.05;;;1.40;;
33826;SDS011;20128;45.582;5.298;2023-07-20T10:03:19;3.47;;;1.10;;
33826;SDS011;20128;45.582;5.298;2023-07-20T10:06:06;3.08;;;1.50;;
33826;SDS011;20128;45.582;5.298;2023-07-20T10:08:38;5.72;;;1.58;;
33826;SDS011;20128;45.582;5.298;2023-07-20T10:11:05;1.77;;;1.17;;
33826;SDS011;20128;45.582;5.298;2023-07-20T10:13:33;7.53;;;1.42;;
33826;SDS011;20128;45.582;5.298;2023-07-20T10:16:46;3.38;;;1.17;;
33826;SDS011;20128;45.582;5.298;2023-07-20T10:19:10;2.92;;;1.13;;
33826;SDS011;20128;45.582;5.298;2023-07-20T10:21:40;2.35;;;1.00;;
33826;SDS011;20128;45.582;5.298;2023-07-20T10:24:12;9.20;;;1.40;;
33826;SDS011;20128;45.582;5.298;2023-07-20T10:26:39;4.20;;;1.20;;
33826;SDS011;20128;45.582;5.298;2023-07-20T10:29:05;1.92;;;1.10;;
33826;SDS011;20128;45.582;5.298;2023-07-20T10:31:32;2.58;;;1.17;;
33826;SDS011;20128;45.582;5.298;2023-07-20T10:33:58;4.78;;;1.63;;
33826;SDS011;20128;45.582;5.298;2023-07-20T10:36:25;4.50;;;1.20;;
33826;SDS011;20128;45.582;5.298;2023-07-20T10:38:53;5.90;;;1.20;;
33826;SDS011;20128;45.582;5.298;2023-07-20T10:41:20;8.18;;;1.40;;
33826;SDS011;20128;45.582;5.298;2023-07-20T10:44:02;5.30;;;1.02;;
33826;SDS011;20128;45.582;5.298;2023-07-20T10:49:04;1.10;;;0.98;;
33826;SDS011;20128;45.582;5.298;2023-07-20T10:52:07;2.42;;;1.23;;
33826;SDS011;20128;45.582;5.298;2023-07-20T10:56:56;2.70;;;1.20;;
33826;SDS011;20128;45.582;5.298;2023-07-20T11:01:48;3.15;;;1.25;;
33826;SDS011;20128;45.582;5.298;2023-07-20T11:04:14;4.97;;;1.50;;
33826;SDS011;20128;45.582;5.298;2023-07-20T11:06:54;2.08;;;1.25;;
33826;SDS011;20128;45.582;5.298;2023-07-20T11:09:22;3.70;;;0.98;;
33826;SDS011;20128;45.582;5.298;2023-07-20T11:11:50;2.80;;;1.00;;
33826;SDS011;20128;45.582;5.298;2023-07-20T11:17:11;3.22;;;1.10;;
33826;SDS011;20128;45.582;5.298;2023-07-20T11:19:38;3.72;;;1.27;;
33826;SDS011;20128;45.582;5.298;2023-07-20T11:22:06;7.70;;;1.40;;
33826;SDS011;20128;45.582;5.298;2023-07-20T11:24:33;2.15;;;1.13;;
33826;SDS011;20128;45.582;5.298;2023-07-20T11:26:59;4.63;;;1.33;;
33826;SDS011;20128;45.582;5.298;2023-07-20T11:29:26;4.47;;;1.10;;
33826;SDS011;20128;45.582;5.298;2023-07-20T11:31:52;2.17;;;0.90;;
33826;SDS011;20128;45.582;5.298;2023-07-20T11:34:19;3.13;;;1.55;;
33826;SDS011;20128;45.582;5.298;2023-07-20T11:36:50;6.72;;;1.40;;
33826;SDS011;20128;45.582;5.298;2023-07-20T11:39:17;4.63;;;1.25;;
33826;SDS011;20128;45.582;5.298;2023-07-20T11:42:05;2.83;;;1.30;;
33826;SDS011;20128;45.582;5.298;2023-07-20T11:44:31;1.33;;;1.10;;
33826;SDS011;20128;45.582;5.298;2023-07-20T11:47:29;3.75;;;1.30;;
33826;SDS011;20128;45.582;5.298;2023-07-20T11:49:53;4.88;;;1.20;;
33826;SDS011;20128;45.582;5.298;2023-07-20T11:52:19;5.47;;;1.05;;
33826;SDS011;20128;45.582;5.298;2023-07-20T11:54:48;5.03;;;0.90;;
33826;SDS011;20128;45.582;5.298;2023-07-20T11:57:17;2.78;;;1.08;;
33826;SDS011;20128;45.582;5.298;2023-07-20T11:59:55;3.50;;;1.13;;
33826;SDS011;20128;45.582;5.298;2023-07-20T12:02:23;4.80;;;1.33;;
33826;SDS011;20128;45.582;5.298;2023-07-20T12:04:50;2.47;;;0.95;;
33826;SDS011;20128;45.582;5.298;2023-07-20T12:07:17;3.75;;;1.13;;
33826;SDS011;20128;45.582;5.298;2023-07-20T12:09:44;5.15;;;2.08;;
33826;SDS011;20128;45.582;5.298;2023-07-20T12:12:10;3.53;;;1.17;;
33826;SDS011;20128;45.582;5.298;2023-07-20T12:14:39;4.32;;;1.40;;
33826;SDS011;20128;45.582;5.298;2023-07-20T12:17:07;4.68;;;1.20;;
33826;SDS011;20128;45.582;5.298;2023-07-20T12:19:37;7.38;;;2.38;;
33826;SDS011;20128;45.582;5.298;2023-07-20T12:22:03;3.40;;;1.30;;
33826;SDS011;20128;45.582;5.298;2023-07-20T12:24:29;2.42;;;1.25;;
33826;SDS011;20128;45.582;5.298;2023-07-20T12:26:58;2.45;;;1.13;;
33826;SDS011;20128;45.582;5.298;2023-07-20T12:29:24;5.05;;;1.27;;
33826;SDS011;20128;45.582;5.298;2023-07-20T12:31:51;2.00;;;1.00;;
33826;SDS011;20128;45.582;5.298;2023-07-20T12:34:17;5.97;;;1.60;;
33826;SDS011;20128;45.582;5.298;2023-07-20T12:36:42;5.57;;;1.20;;
33826;SDS011;20128;45.582;5.298;2023-07-20T12:39:08;4.88;;;1.50;;
33826;SDS011;20128;45.582;5.298;2023-07-20T12:41:34;5.95;;;1.20;;
33826;SDS011;20128;45.582;5.298;2023-07-20T12:44:00;4.60;;;1.55;;
33826;SDS011;20128;45.582;5.298;2023-07-20T12:46:25;5.00;;;1.30;;
33826;SDS011;20128;45.582;5.298;2023-07-20T12:48:54;2.92;;;1.10;;
33826;SDS011;20128;45.582;5.298;2023-07-20T12:51:20;5.05;;;1.20;;
33826;SDS011;20128;45.582;5.298;2023-07-20T12:53:46;6.18;;;1.00;;
33826;SDS011;20128;45.582;5.298;2023-07-20T12:56:11;4.38;;;1.25;;
33826;SDS011;20128;45.582;5.298;2023-07-20T12:58:37;6.57;;;1.30;;
33826;SDS011;20128;45.582;5.298;2023-07-20T13:01:03;2.88;;;1.30;;
33826;SDS011;20128;45.582;5.298;2023-07-20T13:03:29;2.47;;;1.35;;
33826;SDS011;20128;45.582;5.298;2023-07-20T13:05:55;2.80;;;1.40;;
33826;SDS011;20128;45.582;5.298;2023-07-20T13:08:21;3.80;;;1.20;;
33826;SDS011;20128;45.582;5.298;2023-07-20T13:10:50;5.03;;;1.50;;
33826;SDS011;20128;45.582;5.298;2023-07-20T13:13:16;6.90;;;2.13;;
33826;SDS011;20128;45.582;5.298;2023-07-20T13:15:43;4.95;;;1.08;;
33826;SDS011;20128;45.582;5.298;2023-07-20T13:18:09;4.70;;;1.02;;
33826;SDS011;20128;45.582;5.298;2023-07-20T13:20:35;1.55;;;1.05;;
33826;SDS011;20128;45.582;5.298;2023-07-20T13:23:01;3.60;;;1.35;;
33826;SDS011;20128;45.582;5.298;2023-07-20T13:25:26;3.03;;;1.80;;
33826;SDS011;20128;45.582;5.298;2023-07-20T13:27:55;2.75;;;1.25;;
33826;SDS011;20128;45.582;5.298;2023-07-20T13:30:21;4.15;;;1.30;;
33826;SDS011;20128;45.582;5.298;2023-07-20T13:32:47;3.05;;;1.23;;
33826;SDS011;20128;45.582;5.298;2023-07-20T13:35:12;2.15;;;1.02;;
33826;SDS011;20128;45.582;5.298;2023-07-20T13:37:38;2.83;;;1.27;;
33826;SDS011;20128;45.582;5.298;2023-07-20T13:40:05;6.15;;;1.20;;
33826;SDS011;20128;45.582;5.298;2023-07-20T13:42:31;1.77;;;1.35;;
33826;SDS011;20128;45.582;5.298;2023-07-20T13:44:58;2.35;;;1.30;;
33826;SDS011;20128;45.582;5.298;2023-07-20T13:47:24;3.33;;;1.35;;
33826;SDS011;20128;45.582;5.298;2023-07-20T13:49:49;3.40;;;1.10;;
33826;SDS011;20128;45.582;5.298;2023-07-20T13:52:15;2.35;;;1.30;;
33826;SDS011;20128;45.582;5.298;2023-07-20T13:54:41;3.03;;;1.27;;
33826;SDS011;20128;45.582;5.298;2023-07-20T13:57:07;2.72;;;1.23;;
33826;SDS011;20128;45.582;5.298;2023-07-20T13:59:32;5.57;;;1.90;;
33826;SDS011;20128;45.582;5.298;2023-07-20T14:01:58;2.22;;;1.25;;
33826;SDS011;20128;45.582;5.298;2023-07-20T14:04:23;5.57;;;1.50;;
33826;SDS011;20128;45.582;5.298;2023-07-20T14:06:49;4.35;;;1.48;;
33826;SDS011;20128;45.582;5.298;2023-07-20T14:09:15;7.05;;;1.40;;
33826;SDS011;20128;45.582;5.298;2023-07-20T14:11:40;7.57;;;1.52;;
33826;SDS011;20128;45.582;5.298;2023-07-20T14:14:06;3.33;;;1.20;;
33826;SDS011;20128;45.582;5.298;2023-07-20T14:16:32;2.80;;;1.40;;
33826;SDS011;20128;45.582;5.298;2023-07-20T14:18:58;4.40;;;1.40;;
33826;SDS011;20128;45.582;5.298;2023-07-20T14:21:24;7.43;;;1.20;;
33826;SDS011;20128;45.582;5.298;2023-07-20T14:23:50;7.13;;;1.30;;
33826;SDS011;20128;45.582;5.298;2023-07-20T14:26:17;4.05;;;1.20;;
33826;SDS011;20128;45.582;5.298;2023-07-20T14:28:42;1.50;;;1.20;;
33826;SDS011;20128;45.582;5.298;2023-07-20T14:31:08;5.05;;;1.58;;
33826;SDS011;20128;45.582;5.298;2023-07-20T14:33:34;3.30;;;1.50;;
33826;SDS011;20128;45.582;5.298;2023-07-20T14:36:00;3.75;;;1.30;;
33826;SDS011;20128;45.582;5.298;2023-07-20T14:38:27;4.95;;;0.80;;
33826;SDS011;20128;45.582;5.298;2023-07-20T14:40:53;6.10;;;2.15;;
33826;SDS011;20128;45.582;5.298;2023-07-20T14:43:20;1.77;;;1.15;;
33826;SDS011;20128;45.582;5.298;2023-07-20T14:45:46;2.67;;;1.00;;
33826;SDS011;20128;45.582;5.298;2023-07-20T14:48:11;3.75;;;1.08;;
33826;SDS011;20128;45.582;5.298;2023-07-20T14:50:37;7.40;;;1.30;;
33826;SDS011;20128;45.582;5.298;2023-07-20T14:53:03;5.63;;;1.40;;
33826;SDS011;20128;45.582;5.298;2023-07-20T14:55:28;5.15;;;1.10;;
33826;SDS011;20128;45.582;5.298;2023-07-20T14:57:54;2.15;;;1.05;;
33826;SDS011;20128;45.582;5.298;2023-07-20T15:00:20;1.88;;;1.00;;
33826;SDS011;20128;45.582;5.298;2023-07-20T15:02:45;2.92;;;1.20;;
33826;SDS011;20128;45.582;5.298;2023-07-20T15:05:11;4.25;;;1.80;;
33826;SDS011;20128;45.582;5.298;2023-07-20T15:07:37;1.63;;;1.00;;
33826;SDS011;20128;45.582;5.298;2023-07-20T15:10:03;1.95;;;0.95;;